Airport ICAO


00:49 UTC

0°C

Clear skies


An affordable passengers' Moving Map for your aircraft. Made for the iPad and the iPhone
More information here

LFAT Paris Plage


Le Tourquet FRANCE   VFR CAVOK


METAR LFAT 230030Z AUTO 07013KT CAVOK 00/M04 Q1021 0h19min





NOTAMS

OPEN